Time;durP1;ratioP1;P1;durP2;ratioP2;P2;SDS_P1;SDS_P2;PMS_P1;PMS_P2;Temp;Humidity;BMP_temperature;BMP_pressure;BME280_temperature;BME280_humidity;BME280_pressure;Samples;Min_cycle;Max_cycle;Signal;HPM_P1;HPM_P2
2022/08/07 00:01:18;;;;;;;9.23;8.40;;;15.80;99.90;;;;;;5029599;28;20198;-78
2022/08/07 00:03:45;;;;;;;8.97;8.07;;;15.80;99.90;;;;;;5043634;28;20729;-78
2022/08/07 00:06:11;;;;;;;8.77;8.07;;;15.80;99.90;;;;;;5048158;28;20225;-78
2022/08/07 00:08:38;;;;;;;8.83;8.03;;;15.70;99.90;;;;;;5045575;28;20772;-78
2022/08/07 00:11:06;;;;;;;8.80;8.10;;;15.70;99.90;;;;;;5033374;28;20224;-77
2022/08/07 00:13:36;;;;;;;9.07;8.30;;;15.60;99.90;;;;;;5046330;28;20910;-78
2022/08/07 00:16:05;;;;;;;9.50;8.70;;;15.60;99.90;;;;;;5049671;28;20552;-77
2022/08/07 00:18:32;;;;;;;9.27;8.47;;;15.60;99.90;;;;;;5046721;28;20568;-78
2022/08/07 00:21:01;;;;;;;9.53;8.73;;;15.60;99.90;;;;;;5043209;28;20200;-77
2022/08/07 00:23:28;;;;;;;9.87;9.00;;;15.50;99.90;;;;;;5029527;28;20201;-78
2022/08/07 00:25:55;;;;;;;9.33;8.53;;;15.40;99.90;;;;;;5045112;28;20244;-77
2022/08/07 00:28:22;;;;;;;9.27;8.47;;;15.40;99.90;;;;;;5051440;28;20692;-78
2022/08/07 00:30:49;;;;;;;9.27;8.57;;;15.40;99.90;;;;;;5054432;28;20196;-78
2022/08/07 00:33:17;;;;;;;9.90;9.07;;;15.40;99.90;;;;;;5031328;28;20629;-78
2022/08/07 00:35:44;;;;;;;9.77;8.97;;;15.30;99.90;;;;;;5052039;28;20192;-77
2022/08/07 00:38:11;;;;;;;9.60;8.63;;;15.20;99.90;;;;;;5033173;28;20219;-78
2022/08/07 00:40:39;;;;;;;8.97;8.27;;;15.10;99.90;;;;;;5026290;28;20740;-78
2022/08/07 00:43:05;;;;;;;9.67;8.87;;;15.10;99.90;;;;;;5034960;28;20208;-77
2022/08/07 00:45:32;;;;;;;10.03;9.23;;;15.10;99.90;;;;;;5045361;28;20741;-78
2022/08/07 00:47:59;;;;;;;9.60;8.87;;;15.10;99.90;;;;;;5034550;28;20214;-78
2022/08/07 00:50:27;;;;;;;9.47;8.73;;;15.10;99.90;;;;;;5030111;28;20200;-78
2022/08/07 00:52:54;;;;;;;9.10;8.40;;;15.10;99.90;;;;;;5034632;28;20703;-77
2022/08/07 00:55:21;;;;;;;9.57;8.87;;;15.10;99.90;;;;;;5032379;28;20201;-78
2022/08/07 00:57:50;;;;;;;10.23;9.43;;;15.00;99.90;;;;;;5026368;28;20310;-78
2022/08/07 01:00:18;;;;;;;9.57;8.83;;;15.00;99.90;;;;;;5052765;28;20219;-78
2022/08/07 01:02:46;;;;;;;9.23;8.53;;;15.00;99.90;;;;;;5026845;28;20200;-77
2022/08/07 01:05:13;;;;;;;9.70;8.90;;;14.90;99.90;;;;;;5035741;28;20622;-77
2022/08/07 01:07:41;;;;;;;10.23;9.33;;;14.90;99.90;;;;;;5027925;28;20645;-78
2022/08/07 01:10:09;;;;;;;9.67;8.87;;;14.90;99.90;;;;;;5036507;28;20270;-78
2022/08/07 01:12:37;;;;;;;10.17;9.37;;;14.90;99.90;;;;;;5030173;28;20662;-78
2022/08/07 01:15:04;;;;;;;9.80;9.10;;;14.90;99.90;;;;;;5035661;28;20199;-78
2022/08/07 01:17:33;;;;;;;10.17;9.37;;;14.80;99.90;;;;;;5032361;28;20217;-77
2022/08/07 01:20:04;;;;;;;9.53;8.83;;;14.70;99.90;;;;;;5028636;28;20225;-78
2022/08/07 01:22:33;;;;;;;10.07;9.27;;;14.70;99.90;;;;;;5048334;28;20195;-77
2022/08/07 01:25:01;;;;;;;10.23;9.43;;;14.70;99.90;;;;;;5029242;28;20202;-78
2022/08/07 01:27:29;;;;;;;10.47;9.57;;;14.70;99.90;;;;;;5059691;22;20228;-79
2022/08/07 01:29:56;;;;;;;10.10;9.30;;;14.60;99.90;;;;;;5033156;28;20220;-79
2022/08/07 01:32:23;;;;;;;9.70;8.90;;;14.60;99.90;;;;;;5034799;28;20278;-79
2022/08/07 01:34:53;;;;;;;10.30;9.40;;;14.70;99.90;;;;;;5034251;28;20211;-79
2022/08/07 01:37:21;;;;;;;10.10;9.33;;;14.60;99.90;;;;;;5029594;28;20677;-79
2022/08/07 01:39:52;;;;;;;10.40;9.50;;;14.60;99.90;;;;;;5028450;28;20231;-79
2022/08/07 01:42:44;;;;;;;10.93;9.97;;;14.60;99.90;;;;;;5047675;28;20202;-79
2022/08/07 01:45:12;;;;;;;10.80;9.90;;;14.60;99.90;;;;;;5032173;28;20677;-79
2022/08/07 01:47:39;;;;;;;10.87;10.07;;;14.60;99.90;;;;;;5029763;28;20215;-79
2022/08/07 01:50:08;;;;;;;11.13;10.23;;;14.60;99.90;;;;;;5035112;28;20222;-79
2022/08/07 01:52:38;;;;;;;11.43;10.20;;;14.50;99.90;;;;;;5036271;28;20191;-79
2022/08/07 01:55:09;;;;;;;11.33;10.37;;;14.50;99.90;;;;;;5036273;28;20276;-79
2022/08/07 01:57:41;;;;;;;10.73;9.83;;;14.40;99.90;;;;;;5036122;28;20216;-79
2022/08/07 02:00:11;;;;;;;11.37;10.37;;;14.40;99.90;;;;;;5032210;28;20279;-79
2022/08/07 02:02:50;;;;;;;12.03;10.93;;;14.40;99.90;;;;;;5029150;28;20208;-79
2022/08/07 02:05:25;;;;;;;11.13;10.23;;;14.40;99.90;;;;;;5029044;28;20249;-79
2022/08/07 02:07:54;;;;;;;10.60;9.80;;;14.40;99.90;;;;;;5031922;28;20511;-79
2022/08/07 02:10:33;;;;;;;11.03;10.13;;;14.40;99.90;;;;;;5032530;28;20577;-79
2022/08/07 02:13:04;;;;;;;11.33;10.33;;;14.40;99.90;;;;;;5035255;28;20214;-79
2022/08/07 02:15:38;;;;;;;11.13;10.23;;;14.40;99.90;;;;;;5031460;28;20282;-79
2022/08/07 02:18:10;;;;;;;11.60;10.70;;;14.30;99.90;;;;;;5029710;28;20642;-79
2022/08/07 02:20:37;;;;;;;11.13;10.23;;;14.40;99.90;;;;;;5029179;28;20210;-80
2022/08/07 02:23:06;;;;;;;11.20;10.30;;;14.30;99.90;;;;;;5035135;28;20211;-79
2022/08/07 02:25:38;;;;;;;10.90;10.10;;;14.20;99.90;;;;;;5049831;28;20244;-79
2022/08/07 02:28:07;;;;;;;10.67;9.87;;;14.20;99.90;;;;;;5028901;28;20234;-79
2022/08/07 02:30:36;;;;;;;11.37;10.47;;;14.20;99.90;;;;;;5051809;28;20195;-79
2022/08/07 02:33:05;;;;;;;11.90;10.90;;;14.20;99.90;;;;;;5027392;28;20653;-79
2022/08/07 02:35:34;;;;;;;11.67;10.67;;;14.10;99.90;;;;;;5049808;28;20271;-79
2022/08/07 02:38:05;;;;;;;11.50;10.70;;;14.10;99.90;;;;;;5034399;28;20249;-80
2022/08/07 02:40:38;;;;;;;12.13;10.93;;;14.10;99.90;;;;;;5031093;28;20191;-79
2022/08/07 02:43:07;;;;;;;12.00;10.80;;;14.10;99.90;;;;;;5035543;28;20265;-79
2022/08/07 02:45:38;;;;;;;10.67;9.77;;;14.10;99.90;;;;;;5028046;28;20205;-79
2022/08/07 02:48:05;;;;;;;10.57;9.77;;;14.10;99.90;;;;;;5035195;28;20700;-79
2022/08/07 02:50:37;;;;;;;10.77;9.87;;;14.00;99.90;;;;;;5030043;28;20278;-79
2022/08/07 02:53:07;;;;;;;9.93;9.13;;;14.00;99.90;;;;;;5030342;28;20206;-79
2022/08/07 02:55:42;;;;;;;10.13;9.33;;;14.00;99.90;;;;;;5030620;28;20700;-78
2022/08/07 02:58:13;;;;;;;9.90;9.20;;;13.90;99.90;;;;;;5031732;28;20216;-78
2022/08/07 03:00:43;;;;;;;10.13;9.33;;;13.90;99.90;;;;;;5022186;28;20228;-78
2022/08/07 03:03:11;;;;;;;11.03;10.03;;;13.90;99.90;;;;;;5015232;28;20223;-79
2022/08/07 03:05:42;;;;;;;9.37;8.67;;;13.90;99.90;;;;;;5017709;28;20286;-84
2022/08/07 03:08:10;;;;;;;10.20;9.40;;;13.80;99.90;;;;;;5010510;28;20234;-79
2022/08/07 03:10:41;;;;;;;9.93;9.13;;;13.70;99.90;;;;;;5030892;28;20269;-79
2022/08/07 03:13:09;;;;;;;10.33;9.50;;;13.70;99.90;;;;;;5016602;28;20504;-76
2022/08/07 03:15:36;;;;;;;9.43;8.77;;;13.60;99.90;;;;;;5023129;28;20195;-77
2022/08/07 03:18:04;;;;;;;9.63;8.83;;;13.60;99.90;;;;;;5028092;28;20235;-76
2022/08/07 03:20:30;;;;;;;9.97;9.17;;;13.60;99.90;;;;;;5026828;28;20282;-77
2022/08/07 03:22:58;;;;;;;9.30;8.60;;;13.60;99.90;;;;;;5018397;28;20579;-77
2022/08/07 03:25:27;;;;;;;9.17;8.50;;;13.60;99.90;;;;;;5027703;28;20199;-76
2022/08/07 03:27:59;;;;;;;9.80;9.10;;;13.60;99.90;;;;;;5016975;28;20239;-76
2022/08/07 03:30:26;;;;;;;9.20;8.50;;;13.50;99.90;;;;;;5028190;28;20211;-77
2022/08/07 03:32:55;;;;;;;9.37;8.60;;;13.50;99.90;;;;;;5037126;28;20273;-77
2022/08/07 03:35:24;;;;;;;9.70;8.90;;;13.40;99.90;;;;;;5030581;28;20231;-77
2022/08/07 03:37:54;;;;;;;8.70;8.07;;;13.40;99.90;;;;;;5048777;28;20776;-77
2022/08/07 03:40:24;;;;;;;8.63;8.03;;;13.40;99.90;;;;;;5025130;28;20192;-77
2022/08/07 03:42:52;;;;;;;8.40;7.80;;;13.40;99.90;;;;;;5019712;28;20204;-77
2022/08/07 03:45:22;;;;;;;8.57;7.97;;;13.30;99.90;;;;;;5028947;28;20249;-77
2022/08/07 03:47:51;;;;;;;8.60;7.97;;;13.30;99.90;;;;;;5028702;28;20585;-77
2022/08/07 03:50:20;;;;;;;8.57;7.93;;;13.30;99.90;;;;;;5030437;28;20207;-77
2022/08/07 03:52:48;;;;;;;8.40;7.80;;;13.20;99.90;;;;;;5030519;28;20195;-77
2022/08/07 03:55:17;;;;;;;8.73;8.03;;;13.20;99.90;;;;;;5047597;28;20189;-77
2022/08/07 03:57:46;;;;;;;8.77;8.07;;;13.20;99.90;;;;;;5031295;28;20579;-76
2022/08/07 04:00:14;;;;;;;8.20;7.60;;;13.10;99.90;;;;;;5044765;28;20206;-77
2022/08/07 04:02:49;;;;;;;8.30;7.70;;;13.10;99.90;;;;;;5023952;28;20197;-77
2022/08/07 04:05:31;;;;;;;8.00;7.40;;;13.20;99.90;;;;;;5033374;28;20206;-77
2022/08/07 04:07:58;;;;;;;7.97;7.37;;;13.20;99.90;;;;;;5020559;28;20221;-77
2022/08/07 04:10:26;;;;;;;7.70;7.10;;;13.20;99.90;;;;;;5021898;28;20219;-76
2022/08/07 04:12:54;;;;;;;7.43;6.93;;;13.10;99.90;;;;;;5040017;28;20350;-77
2022/08/07 04:15:21;;;;;;;7.87;7.27;;;13.20;99.90;;;;;;5023416;28;20188;-77
2022/08/07 04:17:49;;;;;;;7.93;7.37;;;13.10;99.90;;;;;;5020040;28;20225;-77
2022/08/07 04:20:18;;;;;;;8.17;7.57;;;13.10;99.90;;;;;;5027832;28;20833;-76
2022/08/07 04:22:48;;;;;;;8.30;7.70;;;13.10;99.90;;;;;;5050250;28;20225;-77
2022/08/07 04:25:16;;;;;;;8.10;7.50;;;13.10;99.90;;;;;;5024355;28;20285;-76
2022/08/07 04:27:45;;;;;;;8.00;7.43;;;13.10;99.90;;;;;;5030278;28;20232;-77
2022/08/07 04:30:13;;;;;;;8.27;7.60;;;13.10;99.90;;;;;;5029987;28;20223;-76
2022/08/07 04:33:10;;;;;;;8.07;7.50;;;13.10;99.90;;;;;;5047566;28;20248;-76
2022/08/07 04:35:41;;;;;;;8.17;7.57;;;13.10;99.90;;;;;;5026628;28;20725;-77
2022/08/07 04:38:13;;;;;;;7.93;7.37;;;13.10;99.90;;;;;;5018081;28;20224;-77
2022/08/07 04:40:45;;;;;;;7.40;6.90;;;13.20;99.90;;;;;;5033365;28;20194;-76
2022/08/07 04:43:14;;;;;;;7.90;7.27;;;13.20;99.90;;;;;;5037167;28;20203;-77
2022/08/07 04:45:51;;;;;;;8.10;7.50;;;13.20;99.90;;;;;;5030774;28;20248;-79
2022/08/07 04:48:28;;;;;;;8.00;7.40;;;13.30;99.90;;;;;;5020851;28;20226;-79
2022/08/07 04:51:04;;;;;;;7.43;6.90;;;13.30;99.90;;;;;;5027404;28;20245;-78
2022/08/07 04:53:38;;;;;;;7.53;7.03;;;13.40;99.90;;;;;;5027133;28;20578;-78
2022/08/07 04:56:15;;;;;;;7.40;6.90;;;13.50;99.90;;;;;;5050470;28;20194;-77
2022/08/07 04:58:49;;;;;;;7.87;7.37;;;13.60;99.90;;;;;;5031491;28;20217;-78
2022/08/07 05:01:21;;;;;;;8.00;7.40;;;13.70;99.90;;;;;;5029056;28;20213;-77
2022/08/07 05:03:56;;;;;;;7.17;6.67;;;13.80;99.90;;;;;;5030636;28;20223;-77
2022/08/07 05:06:34;;;;;;;7.53;7.03;;;13.90;99.90;;;;;;5027428;28;20210;-77
2022/08/07 05:09:08;;;;;;;7.23;6.83;;;14.00;99.90;;;;;;5034472;28;20223;-77
2022/08/07 05:11:45;;;;;;;7.90;7.30;;;14.10;99.90;;;;;;5029522;28;20192;-77
2022/08/07 05:14:18;;;;;;;7.43;6.93;;;14.20;99.90;;;;;;5030431;28;20203;-76
2022/08/07 05:16:48;;;;;;;7.77;7.23;;;14.30;99.90;;;;;;5021741;28;20210;-77
2022/08/07 05:19:20;;;;;;;7.63;7.13;;;14.40;99.90;;;;;;5036638;28;20211;-77
2022/08/07 05:21:54;;;;;;;8.63;8.03;;;14.50;99.90;;;;;;5033493;28;20200;-78
2022/08/07 05:24:22;;;;;;;7.23;6.73;;;14.50;99.90;;;;;;5026447;28;20196;-77
2022/08/07 05:26:55;;;;;;;7.60;7.00;;;14.60;99.90;;;;;;5029358;28;20223;-77
2022/08/07 05:29:23;;;;;;;7.30;6.80;;;14.70;99.90;;;;;;5030497;28;20630;-77
2022/08/07 05:31:52;;;;;;;7.63;7.10;;;14.90;99.90;;;;;;5030456;28;20195;-77
2022/08/07 05:34:25;;;;;;;7.40;6.90;;;15.00;99.90;;;;;;5036814;28;20199;-78
2022/08/07 05:36:53;;;;;;;7.40;6.90;;;15.10;99.90;;;;;;5032120;28;20200;-78
2022/08/07 05:39:38;;;;;;;6.83;6.33;;;15.20;99.90;;;;;;5032271;28;20260;-77
2022/08/07 05:42:06;;;;;;;7.53;6.83;;;15.30;99.90;;;;;;5033211;28;20287;-77
2022/08/07 05:44:38;;;;;;;6.63;6.17;;;15.40;99.90;;;;;;5036364;28;20577;-77
2022/08/07 05:47:07;;;;;;;7.00;6.60;;;15.50;99.90;;;;;;5044512;28;20642;-78
2022/08/07 05:49:37;;;;;;;6.97;6.43;;;15.50;99.90;;;;;;5033506;28;20226;-77
2022/08/07 05:52:05;;;;;;;6.20;5.80;;;15.70;99.90;;;;;;5034553;28;20261;-77
2022/08/07 05:54:32;;;;;;;6.20;5.77;;;15.80;99.90;;;;;;5027639;28;20253;-77
2022/08/07 05:57:02;;;;;;;6.70;6.30;;;16.00;99.90;;;;;;5032929;28;20561;-77
2022/08/07 05:59:36;;;;;;;6.53;6.10;;;16.00;99.90;;;;;;5024881;28;20586;-77
2022/08/07 06:02:05;;;;;;;6.67;6.17;;;16.10;99.90;;;;;;5037267;28;20209;-78
2022/08/07 06:04:34;;;;;;;6.80;6.30;;;16.20;99.90;;;;;;5036974;28;20245;-77
2022/08/07 06:07:04;;;;;;;6.80;6.40;;;16.10;99.90;;;;;;5031722;28;20207;-77
2022/08/07 06:09:35;;;;;;;6.70;6.10;;;16.10;99.90;;;;;;5031336;28;20225;-77
2022/08/07 06:12:03;;;;;;;6.80;6.40;;;16.10;99.90;;;;;;5031352;28;20242;-77
2022/08/07 06:14:30;;;;;;;7.47;6.93;;;16.10;99.90;;;;;;5037045;28;20203;-77
2022/08/07 06:17:03;;;;;;;7.73;7.23;;;16.20;99.90;;;;;;5029444;28;20725;-77
2022/08/07 06:19:35;;;;;;;6.87;6.47;;;16.20;99.90;;;;;;5046645;28;20261;-78
2022/08/07 06:22:04;;;;;;;7.23;6.63;;;16.30;99.90;;;;;;5027264;28;20807;-79
2022/08/07 06:24:31;;;;;;;8.37;7.10;;;16.30;99.90;;;;;;5035316;28;20193;-78
2022/08/07 06:26:59;;;;;;;7.50;6.80;;;16.30;99.90;;;;;;5026479;28;20212;-79
2022/08/07 06:29:27;;;;;;;7.00;6.37;;;16.50;99.90;;;;;;5027114;28;20224;-79
2022/08/07 06:31:54;;;;;;;7.13;6.63;;;16.70;99.90;;;;;;5030729;28;20203;-80
2022/08/07 06:34:24;;;;;;;7.10;6.60;;;16.80;99.90;;;;;;5033711;28;20612;-81
2022/08/07 06:36:51;;;;;;;6.50;6.07;;;16.90;99.90;;;;;;5030154;28;20640;-80
2022/08/07 06:39:19;;;;;;;6.10;5.60;;;17.00;99.90;;;;;;5025589;28;20272;-81
2022/08/07 06:41:55;;;;;;;5.20;4.90;;;17.20;99.90;;;;;;5035716;28;20197;-78
2022/08/07 06:44:35;;;;;;;6.10;5.60;;;17.30;99.90;;;;;;5028268;28;20194;-78
2022/08/07 06:47:03;;;;;;;5.53;5.13;;;17.50;99.90;;;;;;5034245;28;20207;-78
2022/08/07 06:49:30;;;;;;;6.73;6.23;;;17.70;99.90;;;;;;5027983;28;20274;-79
2022/08/07 06:51:59;;;;;;;6.90;6.40;;;18.00;99.90;;;;;;5025106;28;20223;-77
2022/08/07 06:54:28;;;;;;;7.43;6.93;;;18.20;99.90;;;;;;5031803;28;20207;-77
2022/08/07 06:56:56;;;;;;;8.00;7.40;;;18.30;99.90;;;;;;5025370;28;20202;-79
2022/08/07 06:59:33;;;;;;;6.87;6.37;;;18.40;99.90;;;;;;5035490;28;20268;-77
2022/08/07 07:02:05;;;;;;;7.00;6.50;;;18.60;99.90;;;;;;5023436;28;20200;-78
2022/08/07 07:04:33;;;;;;;6.87;6.37;;;18.90;99.90;;;;;;5048205;28;20191;-78
2022/08/07 07:07:01;;;;;;;7.17;6.67;;;19.10;99.90;;;;;;5045168;28;20201;-78
2022/08/07 07:09:30;;;;;;;7.10;6.60;;;19.30;99.90;;;;;;5032706;28;20631;-78
2022/08/07 07:12:24;;;;;;;7.60;7.00;;;19.50;99.90;;;;;;5022467;28;20205;-78
2022/08/07 07:15:00;;;;;;;7.50;6.90;;;19.70;99.90;;;;;;5045172;28;20198;-78
2022/08/07 07:17:34;;;;;;;6.00;5.50;;;19.90;99.90;;;;;;5038027;28;20240;-78
2022/08/07 07:20:06;;;;;;;4.60;4.30;;;20.00;99.90;;;;;;5049275;28;20737;-79
2022/08/07 07:22:34;;;;;;;6.70;6.30;;;20.20;99.90;;;;;;5048698;28;20206;-79
2022/08/07 07:25:05;;;;;;;6.60;6.10;;;20.50;99.90;;;;;;5049726;28;20586;-79
2022/08/07 07:27:53;;;;;;;7.00;6.53;;;20.90;99.90;;;;;;5047422;28;20199;-80
2022/08/07 07:30:24;;;;;;;7.10;6.60;;;21.10;99.90;;;;;;5043889;28;20206;-78
2022/08/07 07:32:52;;;;;;;6.80;6.30;;;21.10;99.90;;;;;;5047432;28;20722;-79
2022/08/07 07:35:20;;;;;;;7.30;6.70;;;21.30;99.90;;;;;;5044680;28;20206;-77
2022/08/07 07:37:49;;;;;;;7.63;7.13;;;21.60;99.90;;;;;;5033130;28;20211;-77
2022/08/07 07:40:20;;;;;;;7.13;6.63;;;21.70;99.90;;;;;;5030387;28;20227;-77
2022/08/07 07:42:52;;;;;;;4.37;3.97;;;21.80;99.90;;;;;;5046814;28;20610;-80
2022/08/07 07:45:21;;;;;;;6.97;6.50;;;22.00;99.90;;;;;;5044080;28;20199;-79
2022/08/07 07:47:51;;;;;;;7.70;6.90;;;21.90;99.90;;;;;;5029449;28;20223;-80
2022/08/07 07:50:20;;;;;;;7.77;7.23;;;21.80;99.90;;;;;;5051770;28;20219;-79
2022/08/07 07:52:48;;;;;;;7.57;7.07;;;22.10;99.90;;;;;;5027968;28;20683;-79
2022/08/07 07:55:18;;;;;;;7.93;7.30;;;22.40;99.90;;;;;;5040135;28;20203;-79
2022/08/07 07:57:48;;;;;;;6.87;5.20;;;22.20;99.90;;;;;;5038622;28;20216;-79
2022/08/07 08:00:16;;;;;;;6.23;5.60;;;22.60;99.90;;;;;;5041160;28;20608;-78
2022/08/07 08:02:44;;;;;;;5.13;4.63;;;23.10;99.90;;;;;;5034822;28;20199;-79
2022/08/07 08:05:13;;;;;;;6.20;5.70;;;23.20;99.90;;;;;;5052771;28;20636;-78
2022/08/07 08:07:41;;;;;;;4.00;3.60;;;23.10;99.90;;;;;;5044657;28;20270;-78
2022/08/07 08:10:10;;;;;;;4.80;4.30;;;23.20;99.90;;;;;;5046901;28;20215;-79
2022/08/07 08:12:39;;;;;;;3.50;3.17;;;23.40;99.90;;;;;;5043034;28;20608;-79
2022/08/07 08:15:07;;;;;;;3.03;2.73;;;23.70;99.90;;;;;;5049383;28;20673;-79
2022/08/07 08:17:35;;;;;;;5.23;4.90;;;24.00;99.90;;;;;;5026953;28;20215;-79
2022/08/07 08:20:04;;;;;;;3.00;2.80;;;24.30;99.90;;;;;;5026263;28;20204;-78
2022/08/07 08:28:11;;;;;;;8.50;7.90;;;23.90;99.90;;;;;;5028859;28;20230;-77
2022/08/07 08:30:40;;;;;;;4.57;4.27;;;23.90;99.90;;;;;;5023802;28;20278;-77
2022/08/07 08:33:12;;;;;;;6.50;6.10;;;24.40;99.90;;;;;;5037228;28;20287;-79
2022/08/07 08:35:40;;;;;;;6.90;6.40;;;24.50;99.90;;;;;;5043923;28;20278;-76
2022/08/07 08:38:09;;;;;;;7.20;6.80;;;24.70;99.90;;;;;;5019713;28;20307;-79
2022/08/07 08:40:40;;;;;;;2.60;2.40;;;24.80;99.90;;;;;;5045599;28;20709;-79
2022/08/07 08:43:17;;;;;;;3.03;2.53;;;25.10;99.90;;;;;;5029325;28;20199;-79
2022/08/07 08:45:50;;;;;;;6.23;5.80;;;25.10;99.90;;;;;;5040698;28;20199;-76
2022/08/07 08:48:24;;;;;;;5.97;5.57;;;24.80;99.90;;;;;;5023823;28;20242;-76
2022/08/07 08:50:56;;;;;;;5.77;5.47;;;24.50;99.90;;;;;;5037350;28;20219;-77
2022/08/07 08:53:33;;;;;;;6.23;5.63;;;24.60;99.90;;;;;;5030983;28;20257;-76
2022/08/07 08:56:05;;;;;;;6.20;5.60;;;24.90;99.90;;;;;;5052997;28;20207;-75
2022/08/07 08:58:43;;;;;;;2.80;1.90;;;24.90;99.90;;;;;;5039292;28;20268;-75
2022/08/07 09:01:14;;;;;;;2.80;2.57;;;25.10;99.90;;;;;;5049739;28;20187;-76
2022/08/07 09:03:52;;;;;;;1.97;1.87;;;24.90;99.90;;;;;;5035807;28;20202;-75
2022/08/07 09:06:27;;;;;;;5.50;5.10;;;25.40;99.90;;;;;;5028887;28;20253;-75
2022/08/07 09:09:00;;;;;;;2.23;2.03;;;25.80;99.90;;;;;;5043726;28;20227;-75
2022/08/07 09:11:39;;;;;;;4.40;4.13;;;25.60;99.30;;;;;;5050768;28;20269;-76
2022/08/07 09:14:12;;;;;;;5.67;5.27;;;25.50;99.80;;;;;;5030961;28;20725;-76
2022/08/07 09:16:54;;;;;;;5.17;4.87;;;25.50;99.90;;;;;;5039827;28;20445;-77
2022/08/07 09:19:30;;;;;;;2.73;2.30;;;25.90;99.90;;;;;;5038370;28;20215;-76
2022/08/07 09:22:10;;;;;;;3.83;3.53;;;25.80;98.30;;;;;;5020822;28;20199;-76
2022/08/07 09:24:47;;;;;;;1.80;1.70;;;26.10;99.10;;;;;;5023058;28;20783;-76
2022/08/07 09:27:24;;;;;;;5.17;4.87;;;26.10;98.70;;;;;;5038213;28;20195;-76
2022/08/07 09:30:00;;;;;;;1.93;1.77;;;26.20;99.40;;;;;;5036634;28;20220;-76
2022/08/07 09:32:47;;;;;;;2.17;1.70;;;26.40;98.60;;;;;;5045913;28;20218;-76
2022/08/07 09:35:21;;;;;;;2.53;2.43;;;26.50;98.50;;;;;;5054724;28;20191;-77
2022/08/07 09:37:58;;;;;;;3.63;3.33;;;26.50;96.90;;;;;;5027795;28;20770;-77
2022/08/07 09:40:32;;;;;;;1.90;1.70;;;26.40;97.80;;;;;;5034215;28;20223;-77
2022/08/07 09:43:07;;;;;;;4.93;4.63;;;26.00;96.90;;;;;;5036867;28;20202;-76
2022/08/07 09:45:42;;;;;;;4.63;4.43;;;25.90;97.70;;;;;;5048012;28;20278;-77
2022/08/07 09:48:22;;;;;;;1.87;1.77;;;26.00;97.70;;;;;;5040311;28;20218;-77
2022/08/07 09:51:01;;;;;;;2.80;2.60;;;26.50;98.10;;;;;;5047890;28;20221;-77
2022/08/07 09:53:31;;;;;;;5.10;4.70;;;27.00;97.30;;;;;;5046341;28;20630;-75
2022/08/07 09:56:28;;;;;;;2.03;1.70;;;27.10;95.70;;;;;;5048687;28;20200;-76
2022/08/07 09:59:13;;;;;;;1.97;1.87;;;26.90;95.90;;;;;;5044628;28;20227;-76
2022/08/07 10:01:58;;;;;;;4.80;4.50;;;26.80;95.00;;;;;;5032319;28;20187;-75
2022/08/07 10:04:47;;;;;;;1.90;1.80;;;26.70;96.60;;;;;;5024645;28;20200;-75
2022/08/07 10:07:25;;;;;;;4.57;4.20;;;27.30;96.70;;;;;;5039410;28;20229;-78
2022/08/07 10:10:05;;;;;;;4.70;4.30;;;27.50;94.90;;;;;;5035524;28;20241;-76
2022/08/07 10:12:50;;;;;;;4.47;4.13;;;27.40;94.40;;;;;;5016971;28;20327;-77
2022/08/07 10:15:40;;;;;;;4.90;4.60;;;27.30;96.10;;;;;;5040509;28;20207;-79
2022/08/07 10:18:36;;;;;;;5.40;5.00;;;27.00;95.90;;;;;;5042336;28;20272;-76
2022/08/07 10:21:21;;;;;;;6.93;5.37;;;27.10;93.80;;;;;;5048327;28;20199;-76
2022/08/07 10:24:13;;;;;;;4.80;4.40;;;27.40;93.60;;;;;;5030684;28;20196;-76
2022/08/07 10:26:53;;;;;;;5.10;4.70;;;27.00;94.40;;;;;;5023714;28;20620;-76
2022/08/07 10:29:47;;;;;;;4.80;4.50;;;27.00;94.70;;;;;;5050650;28;20727;-76
2022/08/07 10:32:33;;;;;;;4.60;4.30;;;26.80;93.20;;;;;;5038278;28;20207;-76
2022/08/07 10:35:12;;;;;;;8.80;4.97;;;26.50;92.50;;;;;;5020276;28;20269;-76
2022/08/07 10:37:51;;;;;;;5.60;4.77;;;26.00;93.70;;;;;;5034066;28;20746;-76
2022/08/07 10:40:25;;;;;;;5.07;4.67;;;25.80;94.20;;;;;;5049689;28;20191;-76
2022/08/07 10:43:00;;;;;;;4.37;4.10;;;25.40;93.60;;;;;;5027152;28;20269;-73
2022/08/07 10:45:33;;;;;;;4.40;4.10;;;25.80;94.90;;;;;;5027211;28;20669;-76
2022/08/07 10:48:14;;;;;;;5.03;4.20;;;26.20;93.80;;;;;;5020981;28;20566;-78
2022/08/07 10:50:48;;;;;;;4.40;4.10;;;25.80;92.20;;;;;;5036174;28;20196;-77
2022/08/07 10:53:25;;;;;;;3.00;1.60;;;25.80;93.60;;;;;;5039181;28;20204;-75
2022/08/07 10:56:00;;;;;;;2.33;1.67;;;25.90;92.30;;;;;;5019242;28;20273;-75
2022/08/07 10:58:43;;;;;;;1.70;1.60;;;25.90;92.40;;;;;;5037773;28;20218;-77
2022/08/07 11:01:29;;;;;;;2.03;1.80;;;26.00;93.10;;;;;;5047707;28;20218;-77
2022/08/07 11:04:02;;;;;;;1.90;1.60;;;26.00;92.80;;;;;;5050332;28;20203;-75
2022/08/07 11:06:40;;;;;;;1.80;1.70;;;26.00;93.60;;;;;;5027296;28;20219;-76
2022/08/07 11:09:13;;;;;;;2.80;1.80;;;26.10;93.50;;;;;;5044433;28;20222;-76
2022/08/07 11:11:47;;;;;;;1.70;1.60;;;26.20;92.30;;;;;;5047717;28;20220;-76
2022/08/07 11:14:20;;;;;;;3.17;2.88;;;26.00;93.20;;;;;;5041414;28;20842;-78
2022/08/07 11:16:51;;;;;;;1.93;1.83;;;25.70;93.10;;;;;;5051338;28;20210;-75
2022/08/07 11:19:29;;;;;;;1.97;1.87;;;25.50;92.70;;;;;;5047841;28;20256;-75
2022/08/07 11:22:06;;;;;;;1.83;1.67;;;25.10;92.80;;;;;;5043545;28;20191;-77
2022/08/07 11:24:41;;;;;;;3.73;3.43;;;25.10;93.40;;;;;;5046735;28;20183;-77
2022/08/07 11:27:12;;;;;;;4.07;3.87;;;25.30;93.90;;;;;;5048178;28;20244;-78
2022/08/07 11:29:43;;;;;;;4.73;4.43;;;25.50;94.10;;;;;;5048776;28;20214;-78
2022/08/07 11:32:15;;;;;;;3.75;3.50;;;25.70;94.40;;;;;;5046195;28;20921;-78
2022/08/07 11:34:47;;;;;;;4.63;4.33;;;25.70;93.60;;;;;;5052879;28;20621;-78
2022/08/07 11:37:26;;;;;;;1.70;1.60;;;25.70;92.50;;;;;;5042740;28;20200;-78
2022/08/07 11:40:04;;;;;;;3.93;3.70;;;25.70;93.90;;;;;;5028341;28;20191;-79
2022/08/07 11:42:43;;;;;;;3.50;3.20;;;25.90;92.90;;;;;;5050504;28;20244;-78
2022/08/07 11:45:18;;;;;;;4.30;4.10;;;25.80;93.60;;;;;;5044688;28;20555;-78
2022/08/07 11:48:02;;;;;;;4.20;4.00;;;25.80;92.20;;;;;;5036734;28;20272;-78
2022/08/07 11:50:41;;;;;;;4.20;4.00;;;25.50;92.70;;;;;;5030251;28;20195;-78
2022/08/07 11:53:20;;;;;;;4.60;4.30;;;25.40;92.90;;;;;;5044082;28;20447;-78
2022/08/07 11:56:03;;;;;;;4.10;3.90;;;25.40;93.10;;;;;;5044834;28;20498;-80
2022/08/07 11:58:40;;;;;;;4.17;3.97;;;25.30;92.70;;;;;;5046285;28;20966;-78
2022/08/07 12:01:24;;;;;;;4.57;4.20;;;25.40;93.20;;;;;;5032231;28;20203;-78
2022/08/07 12:04:09;;;;;;;4.30;4.10;;;25.40;91.70;;;;;;5032833;28;20209;-76
2022/08/07 12:06:45;;;;;;;4.40;4.10;;;25.10;92.10;;;;;;5048831;28;20195;-76
2022/08/07 12:09:19;;;;;;;4.90;4.60;;;25.20;92.60;;;;;;5040163;28;20219;-76
2022/08/07 12:11:52;;;;;;;4.70;4.40;;;25.10;93.10;;;;;;5050414;28;20257;-78
2022/08/07 12:14:21;;;;;;;5.00;4.60;;;25.30;93.60;;;;;;5024897;28;20242;-78
2022/08/07 12:16:53;;;;;;;5.03;4.57;;;25.30;92.50;;;;;;5048609;28;20187;-80
2022/08/07 12:19:31;;;;;;;4.97;4.67;;;25.20;91.90;;;;;;5047856;28;20219;-79
2022/08/07 12:22:06;;;;;;;5.27;4.97;;;25.30;93.10;;;;;;5020039;28;20210;-78
2022/08/07 12:25:51;;;;;;;4.87;4.57;;;25.40;93.40;;;;;;5052674;28;20245;-76
2022/08/07 12:27:33;;;;;;;5.17;4.87;;;25.40;93.00;;;;;;5027991;28;20622;-76
2022/08/07 12:30:04;;;;;;;4.87;4.57;;;25.30;92.60;;;;;;5034055;28;20262;-78
2022/08/07 12:32:38;;;;;;;4.60;4.40;;;25.30;92.70;;;;;;5035050;28;20277;-79
2022/08/07 12:35:09;;;;;;;4.77;4.43;;;25.30;93.30;;;;;;5035894;28;20210;-78
2022/08/07 12:37:38;;;;;;;5.00;4.70;;;25.50;92.60;;;;;;5053746;28;20273;-75
2022/08/07 12:40:10;;;;;;;4.87;4.57;;;25.50;92.50;;;;;;5049358;28;20192;-78
2022/08/07 12:42:40;;;;;;;4.70;4.30;;;25.50;92.30;;;;;;5042803;28;20192;-74
2022/08/07 12:45:12;;;;;;;4.87;4.47;;;25.50;92.00;;;;;;5021919;28;20599;-75
2022/08/07 12:47:47;;;;;;;4.17;3.90;;;25.40;91.90;;;;;;5054294;28;20218;-78
2022/08/07 12:50:22;;;;;;;4.40;4.10;;;25.40;92.20;;;;;;5023894;28;20211;-77
2022/08/07 12:53:02;;;;;;;4.50;4.20;;;25.40;92.10;;;;;;5044390;28;20914;-77
2022/08/07 12:55:37;;;;;;;4.47;4.07;;;25.40;91.40;;;;;;5028538;28;20199;-77
2022/08/07 12:58:06;;;;;;;5.03;4.73;;;25.50;92.20;;;;;;5032912;28;20218;-78
2022/08/07 13:00:46;;;;;;;4.30;4.10;;;25.50;91.80;;;;;;5049691;28;20187;-79
2022/08/07 13:03:26;;;;;;;4.63;4.43;;;25.50;92.20;;;;;;5040436;28;20690;-78
2022/08/07 13:06:02;;;;;;;4.50;4.30;;;25.60;92.50;;;;;;5049927;28;20195;-78
2022/08/07 13:08:50;;;;;;;4.47;4.27;;;25.50;92.60;;;;;;5052616;28;20300;-78
2022/08/07 13:11:40;;;;;;;4.60;4.30;;;25.40;91.90;;;;;;5030985;28;20325;-78
2022/08/07 13:14:18;;;;;;;4.43;4.20;;;25.30;91.90;;;;;;5032841;28;20199;-77
2022/08/07 13:16:52;;;;;;;4.27;4.07;;;25.40;92.80;;;;;;5035560;28;20214;-78
2022/08/07 13:19:33;;;;;;;4.37;4.07;;;25.50;91.60;;;;;;5050203;28;20218;-78